sensor_id;sensor_type;location;lat;lon;timestamp;pressure;altitude;pressure_sealevel;temperature;humidity
20942;BME280;10630;53.734;10.282;2023-03-13T00:01:55;99805.34;;;13.18;83.65
20942;BME280;10630;53.734;10.282;2023-03-13T00:04:22;99800.63;;;13.20;83.11
20942;BME280;10630;53.734;10.282;2023-03-13T00:06:48;99796.91;;;13.08;81.33
20942;BME280;10630;53.734;10.282;2023-03-13T00:09:15;99802.47;;;13.20;82.04
20942;BME280;10630;53.734;10.282;2023-03-13T00:11:42;99793.44;;;13.27;81.45
20942;BME280;10630;53.734;10.282;2023-03-13T00:14:11;99789.94;;;13.34;79.84
20942;BME280;10630;53.734;10.282;2023-03-13T00:16:37;99796.94;;;12.94;84.03
20942;BME280;10630;53.734;10.282;2023-03-13T00:19:05;99762.41;;;13.33;81.68
20942;BME280;10630;53.734;10.282;2023-03-13T00:21:32;99775.94;;;12.58;82.22
20942;BME280;10630;53.734;10.282;2023-03-13T00:24:00;99774.72;;;12.60;86.17
20942;BME280;10630;53.734;10.282;2023-03-13T00:26:27;99770.63;;;13.18;83.21
20942;BME280;10630;53.734;10.282;2023-03-13T00:28:54;99757.03;;;13.53;78.49
20942;BME280;10630;53.734;10.282;2023-03-13T00:31:25;99754.97;;;13.49;78.47
20942;BME280;10630;53.734;10.282;2023-03-13T00:33:53;99755.41;;;12.58;80.05
20942;BME280;10630;53.734;10.282;2023-03-13T00:36:22;99747.19;;;12.60;84.05
20942;BME280;10630;53.734;10.282;2023-03-13T00:38:50;99750.50;;;13.09;82.13
20942;BME280;10630;53.734;10.282;2023-03-13T00:41:18;99752.94;;;12.63;84.14
20942;BME280;10630;53.734;10.282;2023-03-13T00:43:46;99743.50;;;13.08;82.71
20942;BME280;10630;53.734;10.282;2023-03-13T00:46:14;99747.56;;;13.51;79.29
20942;BME280;10630;53.734;10.282;2023-03-13T00:48:41;99732.84;;;12.94;80.85
20942;BME280;10630;53.734;10.282;2023-03-13T00:51:08;99724.59;;;13.16;80.24
20942;BME280;10630;53.734;10.282;2023-03-13T00:53:35;99719.28;;;12.89;80.33
20942;BME280;10630;53.734;10.282;2023-03-13T00:56:03;99720.09;;;12.76;80.76
20942;BME280;10630;53.734;10.282;2023-03-13T00:58:32;99733.03;;;12.86;81.08
20942;BME280;10630;53.734;10.282;2023-03-13T01:03:36;99722.56;;;12.85;81.99
20942;BME280;10630;53.734;10.282;2023-03-13T01:06:04;99718.22;;;13.10;81.00
20942;BME280;10630;53.734;10.282;2023-03-13T01:08:32;99711.44;;;13.08;81.05
20942;BME280;10630;53.734;10.282;2023-03-13T01:11:00;99710.16;;;13.30;79.78
20942;BME280;10630;53.734;10.282;2023-03-13T01:13:29;99713.13;;;12.82;80.86
20942;BME280;10630;53.734;10.282;2023-03-13T01:15:56;99703.66;;;12.99;81.80
20942;BME280;10630;53.734;10.282;2023-03-13T01:18:23;99701.56;;;13.22;81.30
20942;BME280;10630;53.734;10.282;2023-03-13T01:20:51;99697.28;;;13.01;81.69
20942;BME280;10630;53.734;10.282;2023-03-13T01:23:18;99704.69;;;12.85;81.14
20942;BME280;10630;53.734;10.282;2023-03-13T01:25:45;99693.78;;;13.07;81.76
20942;BME280;10630;53.734;10.282;2023-03-13T01:28:12;99699.13;;;13.07;82.13
20942;BME280;10630;53.734;10.282;2023-03-13T01:30:38;99679.44;;;12.81;82.46
20942;BME280;10630;53.734;10.282;2023-03-13T01:33:07;99678.84;;;12.86;83.85
20942;BME280;10630;53.734;10.282;2023-03-13T01:35:33;99668.66;;;13.35;82.14
20942;BME280;10630;53.734;10.282;2023-03-13T01:38:00;99665.75;;;13.36;81.34
20942;BME280;10630;53.734;10.282;2023-03-13T01:40:27;99667.47;;;13.17;80.94
20942;BME280;10630;53.734;10.282;2023-03-13T01:42:55;99655.19;;;12.82;82.94
20942;BME280;10630;53.734;10.282;2023-03-13T01:48:07;99652.09;;;12.99;84.01
20942;BME280;10630;53.734;10.282;2023-03-13T01:50:34;99641.44;;;12.86;83.84
20942;BME280;10630;53.734;10.282;2023-03-13T01:53:00;99640.34;;;13.20;81.15
20942;BME280;10630;53.734;10.282;2023-03-13T01:55:27;99638.78;;;12.86;83.10
20942;BME280;10630;53.734;10.282;2023-03-13T01:57:53;99622.00;;;13.30;81.35
20942;BME280;10630;53.734;10.282;2023-03-13T02:00:21;99625.56;;;13.11;80.23
20942;BME280;10630;53.734;10.282;2023-03-13T02:02:51;99613.97;;;13.30;78.89
20942;BME280;10630;53.734;10.282;2023-03-13T02:05:20;99606.91;;;12.91;80.39
20942;BME280;10630;53.734;10.282;2023-03-13T02:07:53;99601.97;;;13.60;77.89
20942;BME280;10630;53.734;10.282;2023-03-13T02:10:20;99590.50;;;13.46;77.22
20942;BME280;10630;53.734;10.282;2023-03-13T02:12:48;99589.47;;;12.81;81.28
20942;BME280;10630;53.734;10.282;2023-03-13T02:15:17;99576.34;;;12.80;81.18
20942;BME280;10630;53.734;10.282;2023-03-13T02:17:45;99594.66;;;12.56;83.49
20942;BME280;10630;53.734;10.282;2023-03-13T02:20:14;99568.63;;;12.45;82.39
20942;BME280;10630;53.734;10.282;2023-03-13T02:27:51;99552.94;;;12.69;83.46
20942;BME280;10630;53.734;10.282;2023-03-13T02:30:20;99546.75;;;12.88;83.46
20942;BME280;10630;53.734;10.282;2023-03-13T02:32:47;99541.81;;;12.85;83.03
20942;BME280;10630;53.734;10.282;2023-03-13T02:35:16;99539.81;;;12.67;84.52
20942;BME280;10630;53.734;10.282;2023-03-13T02:37:44;99529.63;;;12.30;85.87
20942;BME280;10630;53.734;10.282;2023-03-13T02:40:14;99528.81;;;12.37;86.72
20942;BME280;10630;53.734;10.282;2023-03-13T02:42:42;99523.41;;;12.57;85.76
20942;BME280;10630;53.734;10.282;2023-03-13T02:45:15;99529.22;;;12.20;89.30
20942;BME280;10630;53.734;10.282;2023-03-13T02:47:42;99519.34;;;12.41;89.36
20942;BME280;10630;53.734;10.282;2023-03-13T02:50:09;99515.56;;;12.75;85.55
20942;BME280;10630;53.734;10.282;2023-03-13T02:52:39;99506.19;;;12.53;87.59
20942;BME280;10630;53.734;10.282;2023-03-13T02:55:09;99509.25;;;12.56;87.06
20942;BME280;10630;53.734;10.282;2023-03-13T02:57:37;99499.38;;;12.63;86.18
20942;BME280;10630;53.734;10.282;2023-03-13T03:00:05;99498.84;;;13.00;84.42
20942;BME280;10630;53.734;10.282;2023-03-13T03:02:32;99489.59;;;13.03;83.08
20942;BME280;10630;53.734;10.282;2023-03-13T03:05:00;99494.31;;;12.42;85.99
20942;BME280;10630;53.734;10.282;2023-03-13T03:07:27;99482.22;;;12.91;86.05
20942;BME280;10630;53.734;10.282;2023-03-13T03:09:55;99473.63;;;12.89;85.08
20942;BME280;10630;53.734;10.282;2023-03-13T03:12:22;99465.47;;;12.77;84.73
20942;BME280;10630;53.734;10.282;2023-03-13T03:14:48;99459.84;;;12.33;89.49
20942;BME280;10630;53.734;10.282;2023-03-13T03:17:17;99466.22;;;12.32;90.40
20942;BME280;10630;53.734;10.282;2023-03-13T03:19:44;99458.47;;;12.11;91.36
20942;BME280;10630;53.734;10.282;2023-03-13T03:22:11;99452.66;;;12.34;89.37
20942;BME280;10630;53.734;10.282;2023-03-13T03:24:39;99447.47;;;12.53;89.30
20942;BME280;10630;53.734;10.282;2023-03-13T03:27:06;99448.81;;;12.10;93.00
20942;BME280;10630;53.734;10.282;2023-03-13T03:29:32;99440.50;;;12.51;90.06
20942;BME280;10630;53.734;10.282;2023-03-13T03:31:59;99436.78;;;12.59;88.96
20942;BME280;10630;53.734;10.282;2023-03-13T03:34:26;99432.38;;;12.26;90.59
20942;BME280;10630;53.734;10.282;2023-03-13T03:36:53;99430.72;;;12.25;90.99
20942;BME280;10630;53.734;10.282;2023-03-13T03:39:19;99430.16;;;12.10;92.01
20942;BME280;10630;53.734;10.282;2023-03-13T03:41:46;99423.88;;;12.49;92.14
20942;BME280;10630;53.734;10.282;2023-03-13T03:44:13;99412.06;;;12.77;89.39
20942;BME280;10630;53.734;10.282;2023-03-13T03:46:41;99405.19;;;12.56;89.14
20942;BME280;10630;53.734;10.282;2023-03-13T03:49:08;99398.03;;;12.50;90.21
20942;BME280;10630;53.734;10.282;2023-03-13T03:51:36;99390.44;;;12.47;89.71
20942;BME280;10630;53.734;10.282;2023-03-13T03:54:02;99384.63;;;12.63;90.06
20942;BME280;10630;53.734;10.282;2023-03-13T03:56:29;99381.38;;;12.93;87.60
20942;BME280;10630;53.734;10.282;2023-03-13T03:58:57;99368.78;;;12.69;87.46
20942;BME280;10630;53.734;10.282;2023-03-13T04:01:24;99359.66;;;12.51;89.55
20942;BME280;10630;53.734;10.282;2023-03-13T04:03:50;99362.31;;;12.90;88.05
20942;BME280;10630;53.734;10.282;2023-03-13T04:06:17;99350.81;;;12.50;90.64
20942;BME280;10630;53.734;10.282;2023-03-13T04:08:44;99341.81;;;12.45;88.60
20942;BME280;10630;53.734;10.282;2023-03-13T04:11:11;99343.25;;;12.41;92.90
20942;BME280;10630;53.734;10.282;2023-03-13T04:13:40;99345.44;;;12.57;90.87
20942;BME280;10630;53.734;10.282;2023-03-13T04:16:07;99332.03;;;12.71;89.09
20942;BME280;10630;53.734;10.282;2023-03-13T04:18:34;99330.53;;;12.43;91.28
20942;BME280;10630;53.734;10.282;2023-03-13T04:21:02;99328.97;;;12.28;93.70
20942;BME280;10630;53.734;10.282;2023-03-13T04:23:29;99310.75;;;12.57;91.77
20942;BME280;10630;53.734;10.282;2023-03-13T04:25:55;99309.47;;;12.66;90.04
20942;BME280;10630;53.734;10.282;2023-03-13T04:28:22;99304.03;;;12.48;91.80
20942;BME280;10630;53.734;10.282;2023-03-13T04:30:48;99303.66;;;12.38;93.76
20942;BME280;10630;53.734;10.282;2023-03-13T04:33:15;99289.75;;;12.68;92.98
20942;BME280;10630;53.734;10.282;2023-03-13T04:35:43;99290.84;;;12.14;94.78
20942;BME280;10630;53.734;10.282;2023-03-13T04:38:10;99272.41;;;12.13;95.72
20942;BME280;10630;53.734;10.282;2023-03-13T04:40:37;99266.50;;;12.43;95.47
20942;BME280;10630;53.734;10.282;2023-03-13T04:43:05;99251.69;;;12.47;93.42
20942;BME280;10630;53.734;10.282;2023-03-13T04:45:31;99246.06;;;12.23;94.22
20942;BME280;10630;53.734;10.282;2023-03-13T04:48:00;99243.94;;;12.39;93.67
20942;BME280;10630;53.734;10.282;2023-03-13T04:50:28;99220.34;;;12.03;97.01
20942;BME280;10630;53.734;10.282;2023-03-13T04:52:55;99218.59;;;12.23;97.29
20942;BME280;10630;53.734;10.282;2023-03-13T04:55:22;99205.31;;;12.73;96.12
20942;BME280;10630;53.734;10.282;2023-03-13T04:57:49;99200.97;;;12.79;93.56
20942;BME280;10630;53.734;10.282;2023-03-13T05:00:15;99198.53;;;12.52;94.61
20942;BME280;10630;53.734;10.282;2023-03-13T05:02:42;99198.31;;;12.47;94.79
20942;BME280;10630;53.734;10.282;2023-03-13T05:05:09;99182.69;;;12.50;93.80
20942;BME280;10630;53.734;10.282;2023-03-13T05:07:35;99174.91;;;12.24;96.89
20942;BME280;10630;53.734;10.282;2023-03-13T05:10:03;99161.31;;;12.57;93.06
20942;BME280;10630;53.734;10.282;2023-03-13T05:12:30;99158.09;;;12.74;93.40
20942;BME280;10630;53.734;10.282;2023-03-13T05:14:57;99157.94;;;12.43;96.20
20942;BME280;10630;53.734;10.282;2023-03-13T05:17:23;99141.88;;;12.25;96.12
20942;BME280;10630;53.734;10.282;2023-03-13T05:19:50;99141.75;;;12.38;96.49
20942;BME280;10630;53.734;10.282;2023-03-13T05:22:17;99131.66;;;12.15;96.19
20942;BME280;10630;53.734;10.282;2023-03-13T05:24:44;99118.34;;;11.69;98.62
20942;BME280;10630;53.734;10.282;2023-03-13T05:27:11;99109.22;;;12.55;97.98
20942;BME280;10630;53.734;10.282;2023-03-13T05:29:37;99093.78;;;12.31;98.68
20942;BME280;10630;53.734;10.282;2023-03-13T05:32:05;99083.28;;;12.62;95.54
20942;BME280;10630;53.734;10.282;2023-03-13T05:34:32;99082.03;;;12.14;97.65
20942;BME280;10630;53.734;10.282;2023-03-13T05:36:59;99075.31;;;12.55;96.16
20942;BME280;10630;53.734;10.282;2023-03-13T05:39:26;99072.22;;;12.77;95.49
20942;BME280;10630;53.734;10.282;2023-03-13T05:41:54;99072.69;;;13.11;91.90
20942;BME280;10630;53.734;10.282;2023-03-13T05:44:21;99068.16;;;12.56;96.10
20942;BME280;10630;53.734;10.282;2023-03-13T05:46:48;99076.06;;;12.62;97.31
20942;BME280;10630;53.734;10.282;2023-03-13T05:49:14;99077.44;;;12.72;94.92
20942;BME280;10630;53.734;10.282;2023-03-13T05:51:41;99063.47;;;12.70;95.50
20942;BME280;10630;53.734;10.282;2023-03-13T05:54:08;99057.09;;;12.52;97.86
20942;BME280;10630;53.734;10.282;2023-03-13T05:56:35;99057.78;;;12.22;98.60
20942;BME280;10630;53.734;10.282;2023-03-13T05:59:03;99052.56;;;12.53;100.00
20942;BME280;10630;53.734;10.282;2023-03-13T06:01:30;99042.75;;;12.02;99.71
20942;BME280;10630;53.734;10.282;2023-03-13T06:03:57;99037.56;;;12.33;100.00
20942;BME280;10630;53.734;10.282;2023-03-13T06:06:24;99037.06;;;12.43;100.00
20942;BME280;10630;53.734;10.282;2023-03-13T06:08:51;99022.53;;;12.39;100.00
20942;BME280;10630;53.734;10.282;2023-03-13T06:11:18;99014.00;;;12.05;100.00
20942;BME280;10630;53.734;10.282;2023-03-13T06:13:47;99025.53;;;12.24;100.00
20942;BME280;10630;53.734;10.282;2023-03-13T06:16:13;99014.88;;;12.24;100.00
20942;BME280;10630;53.734;10.282;2023-03-13T06:18:41;99017.84;;;12.34;100.00
20942;BME280;10630;53.734;10.282;2023-03-13T06:21:08;99019.56;;;12.28;100.00
20942;BME280;10630;53.734;10.282;2023-03-13T06:23:35;99007.16;;;12.34;100.00
20942;BME280;10630;53.734;10.282;2023-03-13T06:26:02;99011.69;;;12.33;100.00
20942;BME280;10630;53.734;10.282;2023-03-13T06:28:29;99011.84;;;12.20;100.00
20942;BME280;10630;53.734;10.282;2023-03-13T06:30:59;99002.19;;;12.19;100.00
20942;BME280;10630;53.734;10.282;2023-03-13T06:33:26;98988.16;;;12.49;100.00
20942;BME280;10630;53.734;10.282;2023-03-13T06:35:53;98996.25;;;12.79;100.00
20942;BME280;10630;53.734;10.282;2023-03-13T06:38:25;98991.31;;;12.21;100.00
20942;BME280;10630;53.734;10.282;2023-03-13T06:40:52;98980.97;;;12.31;100.00
20942;BME280;10630;53.734;10.282;2023-03-13T06:43:19;98976.75;;;12.42;100.00
20942;BME280;10630;53.734;10.282;2023-03-13T06:45:47;98973.03;;;12.43;100.00
20942;BME280;10630;53.734;10.282;2023-03-13T06:48:14;98965.25;;;12.23;100.00
20942;BME280;10630;53.734;10.282;2023-03-13T06:50:41;98958.31;;;12.40;100.00
20942;BME280;10630;53.734;10.282;2023-03-13T06:53:13;98948.28;;;12.54;100.00
20942;BME280;10630;53.734;10.282;2023-03-13T06:55:42;98949.47;;;12.58;100.00
20942;BME280;10630;53.734;10.282;2023-03-13T06:58:09;98934.50;;;12.39;100.00
20942;BME280;10630;53.734;10.282;2023-03-13T07:00:54;98932.94;;;12.68;100.00
20942;BME280;10630;53.734;10.282;2023-03-13T07:03:20;98925.53;;;13.01;100.00
20942;BME280;10630;53.734;10.282;2023-03-13T07:05:47;98924.09;;;12.86;100.00
20942;BME280;10630;53.734;10.282;2023-03-13T07:08:13;98910.63;;;13.66;96.80
20942;BME280;10630;53.734;10.282;2023-03-13T07:10:41;98908.38;;;13.39;95.56
20942;BME280;10630;53.734;10.282;2023-03-13T07:13:08;98907.03;;;13.18;98.80
20942;BME280;10630;53.734;10.282;2023-03-13T07:15:35;98909.13;;;13.93;96.62
20942;BME280;10630;53.734;10.282;2023-03-13T07:18:01;98905.38;;;13.05;98.14
20942;BME280;10630;53.734;10.282;2023-03-13T07:20:28;98905.53;;;12.91;100.00
20942;BME280;10630;53.734;10.282;2023-03-13T07:22:55;98906.47;;;12.97;100.00
20942;BME280;10630;53.734;10.282;2023-03-13T07:25:21;98902.94;;;13.45;100.00
20942;BME280;10630;53.734;10.282;2023-03-13T07:27:51;98894.03;;;13.21;100.00
20942;BME280;10630;53.734;10.282;2023-03-13T07:30:19;98892.94;;;13.10;100.00
20942;BME280;10630;53.734;10.282;2023-03-13T07:32:45;98881.91;;;13.07;100.00
20942;BME280;10630;53.734;10.282;2023-03-13T07:35:12;98870.59;;;13.35;100.00
20942;BME280;10630;53.734;10.282;2023-03-13T07:37:39;98866.63;;;13.38;100.00
20942;BME280;10630;53.734;10.282;2023-03-13T07:40:06;98870.06;;;13.81;100.00
20942;BME280;10630;53.734;10.282;2023-03-13T07:42:34;98866.75;;;14.26;95.21
20942;BME280;10630;53.734;10.282;2023-03-13T07:45:01;98862.59;;;14.18;96.82
20942;BME280;10630;53.734;10.282;2023-03-13T07:47:27;98864.59;;;14.11;97.12
20942;BME280;10630;53.734;10.282;2023-03-13T07:49:54;98874.81;;;14.02;94.09
20942;BME280;10630;53.734;10.282;2023-03-13T07:52:21;98857.66;;;14.39;96.00
20942;BME280;10630;53.734;10.282;2023-03-13T07:54:48;98859.84;;;13.89;100.00
20942;BME280;10630;53.734;10.282;2023-03-13T07:57:15;98860.06;;;14.52;97.73
20942;BME280;10630;53.734;10.282;2023-03-13T07:59:42;98861.06;;;14.22;96.13
20942;BME280;10630;53.734;10.282;2023-03-13T08:02:10;98856.72;;;14.45;97.05
20942;BME280;10630;53.734;10.282;2023-03-13T08:04:37;98842.88;;;14.48;98.36
20942;BME280;10630;53.734;10.282;2023-03-13T08:07:07;98847.78;;;14.39;100.00
20942;BME280;10630;53.734;10.282;2023-03-13T08:09:33;98841.56;;;14.10;98.66
20942;BME280;10630;53.734;10.282;2023-03-13T08:12:00;98837.19;;;13.80;100.00
20942;BME280;10630;53.734;10.282;2023-03-13T08:14:27;98832.00;;;14.14;100.00
20942;BME280;10630;53.734;10.282;2023-03-13T08:16:54;98825.91;;;14.31;100.00
20942;BME280;10630;53.734;10.282;2023-03-13T08:19:21;98826.16;;;15.16;98.96
20942;BME280;10630;53.734;10.282;2023-03-13T08:21:48;98827.94;;;15.61;92.66
20942;BME280;10630;53.734;10.282;2023-03-13T08:24:15;98820.09;;;15.60;93.56
20942;BME280;10630;53.734;10.282;2023-03-13T08:26:41;98820.66;;;15.40;93.74
20942;BME280;10630;53.734;10.282;2023-03-13T08:29:09;98820.06;;;15.21;97.88
20942;BME280;10630;53.734;10.282;2023-03-13T08:34:09;98810.41;;;15.19;97.73
20942;BME280;10630;53.734;10.282;2023-03-13T08:36:37;98814.88;;;14.97;99.35
20942;BME280;10630;53.734;10.282;2023-03-13T08:39:11;98806.66;;;14.86;99.81
20942;BME280;10630;53.734;10.282;2023-03-13T08:41:38;98806.09;;;15.35;98.99
20942;BME280;10630;53.734;10.282;2023-03-13T08:44:06;98807.00;;;15.41;100.00
20942;BME280;10630;53.734;10.282;2023-03-13T08:46:34;98811.38;;;15.13;100.00
20942;BME280;10630;53.734;10.282;2023-03-13T08:49:02;98806.69;;;15.21;100.00
20942;BME280;10630;53.734;10.282;2023-03-13T08:51:29;98787.53;;;15.68;100.00
20942;BME280;10630;53.734;10.282;2023-03-13T08:53:55;98801.09;;;14.76;100.00
20942;BME280;10630;53.734;10.282;2023-03-13T08:56:23;98782.00;;;15.18;100.00
20942;BME280;10630;53.734;10.282;2023-03-13T08:58:50;98787.34;;;15.18;100.00
20942;BME280;10630;53.734;10.282;2023-03-13T09:01:18;98787.97;;;15.43;100.00
20942;BME280;10630;53.734;10.282;2023-03-13T09:03:45;98782.47;;;15.15;100.00
20942;BME280;10630;53.734;10.282;2023-03-13T09:06:11;98793.69;;;15.29;100.00
20942;BME280;10630;53.734;10.282;2023-03-13T09:08:38;98795.47;;;14.90;100.00
20942;BME280;10630;53.734;10.282;2023-03-13T09:11:06;98790.16;;;15.29;100.00
20942;BME280;10630;53.734;10.282;2023-03-13T09:13:34;98779.19;;;15.47;100.00
20942;BME280;10630;53.734;10.282;2023-03-13T09:16:03;98775.94;;;15.62;100.00
20942;BME280;10630;53.734;10.282;2023-03-13T09:18:31;98782.47;;;15.15;100.00
20942;BME280;10630;53.734;10.282;2023-03-13T09:20:57;98775.25;;;15.72;100.00
20942;BME280;10630;53.734;10.282;2023-03-13T09:23:25;98768.63;;;15.80;100.00
20942;BME280;10630;53.734;10.282;2023-03-13T09:25:52;98756.41;;;16.34;100.00
20942;BME280;10630;53.734;10.282;2023-03-13T09:28:19;98757.63;;;16.21;100.00
20942;BME280;10630;53.734;10.282;2023-03-13T09:30:46;98765.38;;;16.72;99.04
20942;BME280;10630;53.734;10.282;2023-03-13T09:33:15;98756.28;;;16.45;100.00
20942;BME280;10630;53.734;10.282;2023-03-13T09:35:42;98758.75;;;16.25;100.00
20942;BME280;10630;53.734;10.282;2023-03-13T09:38:12;98763.13;;;16.91;99.49
20942;BME280;10630;53.734;10.282;2023-03-13T09:40:48;98752.63;;;16.57;100.00
20942;BME280;10630;53.734;10.282;2023-03-13T09:46:04;98760.63;;;16.52;100.00
20942;BME280;10630;53.734;10.282;2023-03-13T09:48:36;98766.88;;;16.90;100.00
20942;BME280;10630;53.734;10.282;2023-03-13T09:53:43;98756.66;;;15.65;100.00
20942;BME280;10630;53.734;10.282;2023-03-13T09:56:16;98751.72;;;15.57;100.00
20942;BME280;10630;53.734;10.282;2023-03-13T09:59:08;98761.03;;;15.89;100.00
20942;BME280;10630;53.734;10.282;2023-03-13T10:01:36;98753.34;;;17.07;100.00
20942;BME280;10630;53.734;10.282;2023-03-13T10:06:45;98755.47;;;16.72;100.00
20942;BME280;10630;53.734;10.282;2023-03-13T10:09:15;98769.59;;;17.22;100.00
20942;BME280;10630;53.734;10.282;2023-03-13T10:11:55;98772.03;;;16.64;100.00
20942;BME280;10630;53.734;10.282;2023-03-13T10:14:28;98757.75;;;16.91;100.00
20942;BME280;10630;53.734;10.282;2023-03-13T10:17:00;98761.44;;;16.52;100.00
20942;BME280;10630;53.734;10.282;2023-03-13T10:19:32;98767.59;;;16.80;100.00
20942;BME280;10630;53.734;10.282;2023-03-13T10:22:01;98772.06;;;16.69;100.00
20942;BME280;10630;53.734;10.282;2023-03-13T10:24:41;98763.34;;;17.12;100.00
20942;BME280;10630;53.734;10.282;2023-03-13T10:27:08;98770.97;;;17.30;99.55
20942;BME280;10630;53.734;10.282;2023-03-13T10:29:36;98778.56;;;17.01;100.00
20942;BME280;10630;53.734;10.282;2023-03-13T10:32:04;98785.16;;;17.58;98.48
20942;BME280;10630;53.734;10.282;2023-03-13T10:38:01;98785.16;;;16.88;100.00
20942;BME280;10630;53.734;10.282;2023-03-13T10:40:21;98787.72;;;16.77;100.00
20942;BME280;10630;53.734;10.282;2023-03-13T10:42:48;98790.25;;;17.17;100.00
20942;BME280;10630;53.734;10.282;2023-03-13T10:45:16;98801.88;;;17.28;100.00
20942;BME280;10630;53.734;10.282;2023-03-13T10:47:44;98779.16;;;17.46;100.00
20942;BME280;10630;53.734;10.282;2023-03-13T10:50:17;98787.59;;;17.65;100.00
20942;BME280;10630;53.734;10.282;2023-03-13T10:52:47;98782.00;;;18.30;97.22
20942;BME280;10630;53.734;10.282;2023-03-13T11:00:41;98778.84;;;18.54;98.00
20942;BME280;10630;53.734;10.282;2023-03-13T11:03:16;98771.06;;;18.88;94.21
20942;BME280;10630;53.734;10.282;2023-03-13T11:05:45;98769.66;;;18.49;93.46
20942;BME280;10630;53.734;10.282;2023-03-13T11:08:20;98775.38;;;17.95;93.26
20942;BME280;10630;53.734;10.282;2023-03-13T11:10:50;98767.22;;;18.58;90.56
20942;BME280;10630;53.734;10.282;2023-03-13T11:13:52;98768.25;;;18.31;89.67
20942;BME280;10630;53.734;10.282;2023-03-13T11:16:28;98764.22;;;18.39;88.65
20942;BME280;10630;53.734;10.282;2023-03-13T11:21:29;98772.63;;;18.48;89.46
20942;BME280;10630;53.734;10.282;2023-03-13T11:24:04;98775.31;;;18.43;92.98
20942;BME280;10630;53.734;10.282;2023-03-13T11:26:48;98775.63;;;17.88;90.54
20942;BME280;10630;53.734;10.282;2023-03-13T11:29:36;98774.16;;;18.18;88.77
20942;BME280;10630;53.734;10.282;2023-03-13T11:32:12;98757.59;;;18.98;88.06
20942;BME280;10630;53.734;10.282;2023-03-13T11:34:43;98754.31;;;18.55;85.82
20942;BME280;10630;53.734;10.282;2023-03-13T11:37:14;98764.31;;;19.27;83.43
20942;BME280;10630;53.734;10.282;2023-03-13T11:45:11;98746.19;;;19.64;77.77
20942;BME280;10630;53.734;10.282;2023-03-13T11:55:13;98720.78;;;20.70;71.13
20942;BME280;10630;53.734;10.282;2023-03-13T12:00:43;98720.47;;;20.42;69.10
20942;BME280;10630;53.734;10.282;2023-03-13T12:05:50;98718.81;;;19.96;67.71
20942;BME280;10630;53.734;10.282;2023-03-13T12:08:20;98719.72;;;20.66;66.91
20942;BME280;10630;53.734;10.282;2023-03-13T12:13:39;98704.38;;;21.25;61.09
20942;BME280;10630;53.734;10.282;2023-03-13T12:16:15;98707.22;;;19.96;65.52
20942;BME280;10630;53.734;10.282;2023-03-13T12:18:45;98724.69;;;20.53;65.98
20942;BME280;10630;53.734;10.282;2023-03-13T12:24:29;98713.53;;;21.00;63.22
20942;BME280;10630;53.734;10.282;2023-03-13T12:26:39;98716.66;;;20.43;63.03
20942;BME280;10630;53.734;10.282;2023-03-13T12:39:53;98726.59;;;20.53;63.14
20942;BME280;10630;53.734;10.282;2023-03-13T12:42:46;98710.66;;;20.91;60.97
20942;BME280;10630;53.734;10.282;2023-03-13T12:45:17;98711.78;;;21.39;58.73
20942;BME280;10630;53.734;10.282;2023-03-13T12:50:39;98703.22;;;20.73;60.72
20942;BME280;10630;53.734;10.282;2023-03-13T13:00:56;98683.66;;;21.15;58.42
20942;BME280;10630;53.734;10.282;2023-03-13T13:03:34;98683.44;;;22.04;56.11
20942;BME280;10630;53.734;10.282;2023-03-13T13:06:04;98678.88;;;21.56;56.05
20942;BME280;10630;53.734;10.282;2023-03-13T13:08:36;98680.59;;;19.63;62.84
20942;BME280;10630;53.734;10.282;2023-03-13T13:13:49;98699.84;;;19.36;63.27
20942;BME280;10630;53.734;10.282;2023-03-13T13:16:17;98696.66;;;18.82;64.96
20942;BME280;10630;53.734;10.282;2023-03-13T13:18:45;98711.22;;;19.22;64.27
20942;BME280;10630;53.734;10.282;2023-03-13T13:23:45;98639.09;;;20.83;58.83
20942;BME280;10630;53.734;10.282;2023-03-13T13:28:52;98660.22;;;19.36;62.47
20942;BME280;10630;53.734;10.282;2023-03-13T13:34:06;98659.34;;;19.51;61.18
20942;BME280;10630;53.734;10.282;2023-03-13T13:36:39;98662.19;;;19.81;61.45
20942;BME280;10630;53.734;10.282;2023-03-13T13:39:20;98644.66;;;19.78;61.26
20942;BME280;10630;53.734;10.282;2023-03-13T13:41:48;98639.09;;;19.59;61.52
20942;BME280;10630;53.734;10.282;2023-03-13T13:44:23;98633.84;;;20.28;58.69
20942;BME280;10630;53.734;10.282;2023-03-13T13:46:51;98641.75;;;19.64;57.94
20942;BME280;10630;53.734;10.282;2023-03-13T13:49:19;98622.09;;;19.58;58.93
20942;BME280;10630;53.734;10.282;2023-03-13T13:55:14;98607.63;;;20.34;53.93
20942;BME280;10630;53.734;10.282;2023-03-13T13:57:24;98601.28;;;20.14;55.40
20942;BME280;10630;53.734;10.282;2023-03-13T13:59:59;98600.75;;;20.12;56.10
20942;BME280;10630;53.734;10.282;2023-03-13T14:02:35;98606.13;;;20.17;55.70
20942;BME280;10630;53.734;10.282;2023-03-13T14:05:17;98602.19;;;20.98;53.93
20942;BME280;10630;53.734;10.282;2023-03-13T14:07:49;98604.91;;;19.99;56.06
20942;BME280;10630;53.734;10.282;2023-03-13T14:10:27;98593.41;;;19.78;56.00
20942;BME280;10630;53.734;10.282;2023-03-13T14:12:56;98584.72;;;19.91;56.54
20942;BME280;10630;53.734;10.282;2023-03-13T14:15:28;98598.44;;;19.95;55.93
20942;BME280;10630;53.734;10.282;2023-03-13T14:17:56;98583.22;;;19.65;57.54
20942;BME280;10630;53.734;10.282;2023-03-13T14:23:03;98578.81;;;19.79;55.90
20942;BME280;10630;53.734;10.282;2023-03-13T14:25:47;98575.91;;;19.70;57.19
20942;BME280;10630;53.734;10.282;2023-03-13T14:30:42;98563.84;;;20.37;53.88
20942;BME280;10630;53.734;10.282;2023-03-13T14:33:10;98576.97;;;20.14;54.94